UPSVAC Airport Information Service

Rarotonga Intl

ICAO: NCRG Country: Cook Islands,OC
Latitude: -21.1833 Longitude: -159.8
Latest Arrival : UPS462670 (PHNL-NCRG) Latest Departure : REP507 (NCRG-KONT)


WX CaptureLIVE
Data provided by noaa.gov | Fetched at 23:17:55

METAR : NCRG 112300Z AUTO 11005KT 080V140 9999 -RA FEW038/// SCT055/// BKN100/// 25/22 Q1013

TAF : NCRG 111709Z 1118/1218 06008KT 8000 RA BKN018 BKN040 TEMPO 1118/1206 3000 TSRA BKN016 FEW018CB TEMPO 1206/1218 03015G25KT 1000 +TSRA SCT009 BKN015 SCT018CB


Runway Data for NCRG
Data provided by openaviationdata.com

Runway ID Mag Var Hdg Length Elevation Surface ILS Freq ILS Id ILS Slope
8 14 76° 7632 ft 22 ft Concrete 109.9 INO 3
26 14 256° 7632 ft 22 ft Concrete 110.3 IAV 3

Rarotonga Intl, Cook Islands,OC
Use only for reference purposes



Not for navigational purposes.